createdAt,value
2022-12-29T00:01:09.317Z,2.63
2022-12-29T00:03:37.400Z,2.67
2022-12-29T00:06:05.601Z,2.70
2022-12-29T00:08:42.708Z,2.10
2022-12-29T00:11:16.476Z,2.38
2022-12-29T00:14:03.378Z,2.47
2022-12-29T00:16:32.430Z,2.60
2022-12-29T00:19:00.889Z,2.35
2022-12-29T00:21:48.139Z,2.40
2022-12-29T00:24:28.645Z,2.83
2022-12-29T00:27:34.667Z,2.38
2022-12-29T00:33:07.598Z,2.58
2022-12-29T00:35:44.271Z,2.30
2022-12-29T00:38:52.102Z,2.15
2022-12-29T00:41:38.931Z,2.33
2022-12-29T00:44:08.204Z,2.30
2022-12-29T00:46:38.023Z,2.08
2022-12-29T00:49:26.486Z,2.50
2022-12-29T00:51:55.953Z,2.50
2022-12-29T00:54:24.115Z,2.53
2022-12-29T00:56:53.178Z,2.20
2022-12-29T00:59:21.849Z,2.65
2022-12-29T01:01:49.860Z,2.30
2022-12-29T01:04:17.967Z,2.25
2022-12-29T01:06:46.761Z,2.25
2022-12-29T01:09:37.027Z,2.30
2022-12-29T01:12:06.733Z,2.10
2022-12-29T01:14:36.578Z,2.20
2022-12-29T01:17:05.147Z,1.90
2022-12-29T01:19:34.261Z,1.67
2022-12-29T01:22:02.611Z,2.15
2022-12-29T01:24:30.535Z,2.10
2022-12-29T01:26:58.442Z,1.95
2022-12-29T01:29:26.321Z,1.88
2022-12-29T01:31:54.195Z,1.90
2022-12-29T01:34:22.165Z,1.90
2022-12-29T01:36:50.014Z,1.50
2022-12-29T01:39:17.892Z,1.92
2022-12-29T01:41:45.709Z,1.60
2022-12-29T01:44:51.109Z,1.90
2022-12-29T01:47:39.655Z,1.77
2022-12-29T01:50:24.006Z,1.48
2022-12-29T01:53:31.489Z,1.50
2022-12-29T01:56:06.965Z,1.65
2022-12-29T01:58:40.758Z,1.45
2022-12-29T02:01:08.868Z,1.70
2022-12-29T02:03:38.126Z,1.52
2022-12-29T02:06:19.216Z,1.17
2022-12-29T02:08:48.811Z,1.70
2022-12-29T02:11:18.136Z,1.45
2022-12-29T02:13:46.263Z,1.50
2022-12-29T02:16:40.669Z,0.95
2022-12-29T02:19:45.196Z,1.48
2022-12-29T02:22:31.718Z,1.60
2022-12-29T02:25:21.334Z,1.52
2022-12-29T02:28:19.082Z,1.38
2022-12-29T02:30:59.190Z,1.33
2022-12-29T02:33:46.447Z,1.35
2022-12-29T02:36:20.621Z,1.70
2022-12-29T02:39:11.247Z,1.60
2022-12-29T02:42:04.499Z,1.40
2022-12-29T02:44:55.443Z,1.50
2022-12-29T02:48:10.790Z,1.40
2022-12-29T02:50:44.916Z,1.50
2022-12-29T02:53:39.332Z,1.30
2022-12-29T02:56:07.283Z,1.10
2022-12-29T02:58:35.257Z,1.00
2022-12-29T03:02:12.192Z,1.02
2022-12-29T03:04:56.198Z,1.10
2022-12-29T03:07:40.895Z,1.02
2022-12-29T03:10:35.945Z,0.75
2022-12-29T03:16:15.778Z,0.68
2022-12-29T03:19:05.672Z,0.80
2022-12-29T03:21:59.215Z,0.93
2022-12-29T03:24:32.126Z,0.90
2022-12-29T03:27:03.822Z,0.80
2022-12-29T03:29:48.023Z,1.10
2022-12-29T03:32:18.170Z,1.00
2022-12-29T03:34:47.850Z,0.90
2022-12-29T03:37:21.807Z,1.35
2022-12-29T03:39:50.137Z,1.10
2022-12-29T03:42:22.406Z,0.93
2022-12-29T03:44:53.989Z,1.05
2022-12-29T03:47:22.094Z,0.80
2022-12-29T03:49:50.603Z,0.90
2022-12-29T03:52:19.126Z,1.30
2022-12-29T03:54:48.191Z,1.13
2022-12-29T03:57:16.241Z,1.05
2022-12-29T03:59:55.068Z,0.95
2022-12-29T04:02:23.310Z,0.80
2022-12-29T04:04:51.426Z,0.90
2022-12-29T04:07:19.269Z,1.10
2022-12-29T04:09:47.086Z,1.10
2022-12-29T04:12:20.849Z,1.20
2022-12-29T04:14:48.765Z,1.35
2022-12-29T04:17:16.707Z,1.25
2022-12-29T04:19:46.744Z,1.30
2022-12-29T04:22:14.566Z,1.30
2022-12-29T04:24:42.545Z,0.95
2022-12-29T04:27:12.671Z,1.00
2022-12-29T04:29:56.884Z,1.13
2022-12-29T04:32:48.041Z,1.00
2022-12-29T04:35:16.099Z,1.13
2022-12-29T04:37:44.292Z,0.85
2022-12-29T04:40:12.864Z,1.02
2022-12-29T04:42:40.739Z,1.40
2022-12-29T04:45:09.832Z,1.02
2022-12-29T04:47:50.791Z,1.13
2022-12-29T04:50:51.022Z,0.98
2022-12-29T04:53:20.749Z,1.20
2022-12-29T04:55:53.613Z,1.10
2022-12-29T04:58:23.103Z,1.20
2022-12-29T05:00:53.128Z,1.10
2022-12-29T05:03:23.963Z,1.20
2022-12-29T05:05:56.003Z,1.05
2022-12-29T05:08:28.049Z,1.02
2022-12-29T05:10:59.456Z,1.17
2022-12-29T05:13:28.059Z,1.30
2022-12-29T05:15:56.113Z,0.80
2022-12-29T05:18:25.359Z,1.20
2022-12-29T05:20:53.366Z,1.00
2022-12-29T05:23:22.615Z,1.20
2022-12-29T05:26:06.821Z,1.37
2022-12-29T05:28:58.029Z,1.55
2022-12-29T05:31:26.074Z,1.65
2022-12-29T05:33:54.635Z,1.70
2022-12-29T05:36:22.981Z,1.42
2022-12-29T05:38:54.928Z,1.23
2022-12-29T05:41:23.030Z,1.40
2022-12-29T05:43:53.426Z,1.10
2022-12-29T05:46:31.515Z,1.50
2022-12-29T05:49:16.927Z,1.55
2022-12-29T05:52:00.366Z,1.52
2022-12-29T05:54:29.569Z,0.98
2022-12-29T05:56:57.928Z,1.75
2022-12-29T05:59:26.000Z,0.93
2022-12-29T06:01:55.813Z,1.17
2022-12-29T06:04:24.080Z,0.77
2022-12-29T06:06:51.864Z,0.80
2022-12-29T06:09:30.053Z,1.05
2022-12-29T06:11:58.375Z,1.40
2022-12-29T06:14:27.035Z,1.02
2022-12-29T06:16:54.978Z,1.27
2022-12-29T06:19:23.581Z,1.20
2022-12-29T06:21:53.535Z,1.50
2022-12-29T06:24:22.183Z,1.17
2022-12-29T06:26:50.150Z,0.80
2022-12-29T06:29:18.937Z,1.60
2022-12-29T06:31:47.743Z,1.45
2022-12-29T06:34:15.822Z,1.63
2022-12-29T06:36:43.717Z,1.13
2022-12-29T06:39:12.635Z,1.60
2022-12-29T06:41:40.627Z,1.70
2022-12-29T06:44:28.657Z,1.10
2022-12-29T06:47:02.927Z,1.35
2022-12-29T06:49:30.735Z,1.20
2022-12-29T06:52:00.683Z,1.30
2022-12-29T06:54:28.720Z,1.10
2022-12-29T06:56:56.684Z,1.10
2022-12-29T06:59:25.274Z,1.40
2022-12-29T07:01:54.657Z,1.85
2022-12-29T07:04:22.892Z,1.52
2022-12-29T07:06:50.703Z,1.48
2022-12-29T07:09:18.505Z,1.02
2022-12-29T07:11:46.553Z,1.65
2022-12-29T07:14:14.374Z,1.48
2022-12-29T07:16:42.265Z,1.70
2022-12-29T07:19:10.577Z,1.60
2022-12-29T07:21:38.427Z,1.50
2022-12-29T07:24:06.707Z,1.48
2022-12-29T07:26:36.604Z,1.60
2022-12-29T07:29:05.624Z,1.10
2022-12-29T07:31:33.614Z,1.00
2022-12-29T07:34:02.141Z,1.02
2022-12-29T07:36:34.393Z,1.52
2022-12-29T07:39:03.756Z,1.40
2022-12-29T07:41:32.018Z,1.52
2022-12-29T07:44:03.060Z,1.60
2022-12-29T07:46:58.833Z,0.90
2022-12-29T07:49:27.236Z,1.13
2022-12-29T07:51:55.212Z,1.38
2022-12-29T07:54:24.292Z,1.80
2022-12-29T07:56:52.518Z,1.60
2022-12-29T07:59:21.768Z,2.28
2022-12-29T08:01:49.813Z,1.50
2022-12-29T08:04:18.070Z,1.75
2022-12-29T08:06:46.565Z,1.55
2022-12-29T08:09:21.583Z,1.17
2022-12-29T08:11:50.659Z,1.88
2022-12-29T08:14:19.375Z,1.60
2022-12-29T08:16:47.513Z,2.10
2022-12-29T08:19:15.725Z,1.65
2022-12-29T08:21:43.886Z,1.73
2022-12-29T08:24:12.228Z,1.63
2022-12-29T08:26:40.585Z,2.50
2022-12-29T08:29:08.669Z,1.80
2022-12-29T08:31:36.975Z,1.55
2022-12-29T08:34:04.927Z,1.90
2022-12-29T08:36:32.822Z,1.58
2022-12-29T08:39:00.762Z,1.55
2022-12-29T08:41:28.705Z,1.60
2022-12-29T08:43:56.598Z,2.30
2022-12-29T08:46:24.734Z,1.52
2022-12-29T08:48:52.761Z,1.80
2022-12-29T08:51:24.626Z,1.50
2022-12-29T08:53:53.569Z,1.85
2022-12-29T08:56:24.629Z,1.63
2022-12-29T08:58:55.979Z,1.98
2022-12-29T09:01:24.693Z,1.50
2022-12-29T09:04:14.437Z,1.70
2022-12-29T09:06:42.002Z,1.35
2022-12-29T09:09:09.901Z,2.25
2022-12-29T09:11:37.761Z,1.45
2022-12-29T09:14:06.001Z,2.58
2022-12-29T09:16:34.164Z,1.50
2022-12-29T09:19:02.881Z,1.48
2022-12-29T09:21:30.845Z,1.45
2022-12-29T09:23:58.733Z,2.05
2022-12-29T09:26:26.673Z,1.27
2022-12-29T09:28:54.737Z,1.52
2022-12-29T09:31:23.177Z,1.23
2022-12-29T09:33:51.649Z,1.45
2022-12-29T09:36:19.460Z,1.70
2022-12-29T09:38:47.426Z,1.67
2022-12-29T09:41:23.582Z,2.47
2022-12-29T09:43:51.941Z,2.00
2022-12-29T09:46:24.616Z,1.75
2022-12-29T09:49:07.812Z,1.80
2022-12-29T09:51:39.009Z,1.60
2022-12-29T09:54:52.831Z,1.55
2022-12-29T09:57:35.379Z,1.45
2022-12-29T10:00:15.039Z,1.38
2022-12-29T10:02:49.931Z,1.20
2022-12-29T10:05:30.128Z,1.70
2022-12-29T10:08:19.103Z,1.95
2022-12-29T10:10:57.502Z,1.60
2022-12-29T10:13:40.285Z,1.42
2022-12-29T10:16:10.972Z,1.65
2022-12-29T10:19:10.164Z,1.20
2022-12-29T10:22:02.910Z,1.80
2022-12-29T10:24:31.902Z,1.90
2022-12-29T10:27:00.713Z,1.80
2022-12-29T10:29:46.919Z,1.90
2022-12-29T10:32:27.619Z,1.67
2022-12-29T10:35:01.368Z,1.92
2022-12-29T10:37:49.578Z,1.67
2022-12-29T10:40:28.772Z,1.70
2022-12-29T10:42:58.241Z,2.20
2022-12-29T10:45:33.538Z,1.30
2022-12-29T10:48:06.508Z,1.67
2022-12-29T10:50:34.831Z,1.45
2022-12-29T10:53:06.345Z,1.75
2022-12-29T10:55:37.523Z,1.50
2022-12-29T10:58:12.652Z,1.60
2022-12-29T11:00:40.683Z,1.63
2022-12-29T11:03:42.283Z,1.30
2022-12-29T11:06:12.350Z,1.55
2022-12-29T11:08:46.335Z,1.25
2022-12-29T11:11:26.956Z,1.37
2022-12-29T11:14:03.034Z,1.30
2022-12-29T11:16:35.094Z,1.45
2022-12-29T11:19:03.479Z,1.42
2022-12-29T11:21:45.547Z,1.50
2022-12-29T11:24:46.871Z,1.60
2022-12-29T11:27:23.692Z,1.60
2022-12-29T11:29:53.747Z,2.13
2022-12-29T11:32:29.030Z,1.63
2022-12-29T11:35:02.029Z,1.80
2022-12-29T11:37:41.154Z,1.70
2022-12-29T11:40:20.719Z,2.03
2022-12-29T11:43:00.781Z,2.47
2022-12-29T11:45:37.984Z,2.40
2022-12-29T11:48:19.558Z,2.17
2022-12-29T11:50:54.083Z,1.95
2022-12-29T11:53:23.599Z,2.20
2022-12-29T11:56:02.124Z,2.40
2022-12-29T11:58:35.351Z,2.50
2022-12-29T12:01:18.035Z,2.90
2022-12-29T12:04:13.769Z,2.22
2022-12-29T12:09:52.743Z,2.88
2022-12-29T12:12:32.044Z,2.67
2022-12-29T12:15:02.291Z,2.42
2022-12-29T12:17:58.378Z,2.80
2022-12-29T12:20:44.980Z,2.60
2022-12-29T12:23:31.947Z,2.95
2022-12-29T12:26:08.967Z,2.55
2022-12-29T12:29:13.803Z,2.42
2022-12-29T12:31:53.111Z,2.30
2022-12-29T12:34:34.784Z,3.60
2022-12-29T12:37:05.772Z,2.10
2022-12-29T12:39:49.771Z,2.35
2022-12-29T12:42:55.027Z,2.22
2022-12-29T12:45:59.905Z,1.73
2022-12-29T12:48:48.166Z,1.42
2022-12-29T12:51:44.697Z,2.22
2022-12-29T12:54:48.209Z,2.40
2022-12-29T12:57:29.170Z,2.13
2022-12-29T13:00:18.999Z,2.33
2022-12-29T13:03:14.186Z,2.83
2022-12-29T13:05:50.996Z,2.20
2022-12-29T13:08:39.181Z,2.33
2022-12-29T13:11:25.774Z,2.03
2022-12-29T13:14:12.244Z,2.90
2022-12-29T13:16:54.796Z,2.30
2022-12-29T13:19:28.094Z,2.40
2022-12-29T13:22:06.678Z,1.80
2022-12-29T13:25:13.943Z,2.50
2022-12-29T13:27:44.922Z,2.35
2022-12-29T13:30:18.624Z,2.13
2022-12-29T13:33:05.304Z,2.88
2022-12-29T13:35:38.779Z,2.50
2022-12-29T13:38:19.043Z,2.90
2022-12-29T13:40:54.517Z,2.42
2022-12-29T13:43:24.506Z,2.95
2022-12-29T13:46:04.260Z,3.08
2022-12-29T13:48:55.772Z,2.10
2022-12-29T13:51:28.187Z,2.33
2022-12-29T13:54:18.571Z,2.80
2022-12-29T13:57:05.234Z,2.28
2022-12-29T13:59:44.141Z,2.30
2022-12-29T14:02:39.443Z,2.67
2022-12-29T14:05:28.985Z,3.05
2022-12-29T14:08:02.246Z,2.28
2022-12-29T14:10:47.493Z,2.88
2022-12-29T14:13:24.293Z,1.90
2022-12-29T14:15:53.558Z,2.65
2022-12-29T14:18:24.403Z,2.53
2022-12-29T14:21:12.317Z,2.90
2022-12-29T14:23:41.940Z,3.35
2022-12-29T14:26:14.185Z,3.22
2022-12-29T14:28:47.360Z,3.50
2022-12-29T14:31:21.472Z,3.20
2022-12-29T14:34:07.386Z,3.42
2022-12-29T14:36:39.125Z,3.95
2022-12-29T14:39:29.077Z,2.97
2022-12-29T14:42:13.421Z,3.13
2022-12-29T14:44:57.060Z,3.05
2022-12-29T14:47:42.429Z,3.30
2022-12-29T14:53:05.200Z,1.67
2022-12-29T14:55:53.314Z,1.83
2022-12-29T14:58:31.782Z,2.28
2022-12-29T15:01:01.434Z,1.80
2022-12-29T15:03:38.603Z,2.45
2022-12-29T15:06:23.259Z,2.00
2022-12-29T15:09:15.831Z,1.55
2022-12-29T15:11:50.641Z,1.40
2022-12-29T15:14:40.341Z,1.10
2022-12-29T15:17:32.622Z,1.35
2022-12-29T15:20:02.566Z,1.40
2022-12-29T15:22:32.252Z,1.60
2022-12-29T15:25:00.068Z,1.77
2022-12-29T15:27:28.680Z,1.80
2022-12-29T15:30:04.846Z,2.00
2022-12-29T15:32:44.034Z,1.60
2022-12-29T15:35:35.465Z,1.63
2022-12-29T15:38:17.547Z,1.45
2022-12-29T15:40:46.463Z,1.30
2022-12-29T15:43:52.048Z,2.10
2022-12-29T15:46:20.362Z,2.17
2022-12-29T15:48:48.565Z,3.58
2022-12-29T15:51:27.530Z,3.10
2022-12-29T15:53:56.221Z,2.85
2022-12-29T15:56:24.369Z,2.85
2022-12-29T15:58:53.283Z,2.33
2022-12-29T16:01:28.419Z,3.38
2022-12-29T16:03:57.883Z,2.80
2022-12-29T16:06:35.791Z,2.50
2022-12-29T16:09:18.304Z,2.63
2022-12-29T16:11:54.254Z,3.28
2022-12-29T16:14:32.686Z,3.20
2022-12-29T16:17:07.463Z,2.80
2022-12-29T16:19:40.084Z,2.80
2022-12-29T16:22:22.652Z,2.30
2022-12-29T16:24:50.489Z,3.13
2022-12-29T16:27:36.829Z,2.83
2022-12-29T16:30:18.608Z,2.38
2022-12-29T16:32:52.467Z,2.72
2022-12-29T16:35:28.071Z,3.15
2022-12-29T16:38:18.475Z,2.42
2022-12-29T16:40:57.285Z,2.17
2022-12-29T16:43:27.832Z,2.28
2022-12-29T16:46:01.717Z,2.65
2022-12-29T16:48:32.541Z,2.40
2022-12-29T16:51:18.084Z,5.80
2022-12-29T16:53:55.320Z,4.47
2022-12-29T16:56:28.408Z,2.50
2022-12-29T16:59:06.281Z,1.65
2022-12-29T17:01:38.348Z,2.13
2022-12-29T17:04:14.526Z,2.50
2022-12-29T17:06:42.817Z,1.92
2022-12-29T17:09:28.788Z,2.08
2022-12-29T17:12:06.960Z,1.70
2022-12-29T17:14:46.161Z,2.20
2022-12-29T17:17:32.650Z,2.40
2022-12-29T17:20:18.990Z,2.35
2022-12-29T17:22:47.633Z,2.22
2022-12-29T17:25:36.606Z,2.08
2022-12-29T17:28:16.362Z,2.28
2022-12-29T17:30:44.313Z,5.05
2022-12-29T17:33:15.615Z,2.00
2022-12-29T17:35:43.963Z,2.08
2022-12-29T17:38:22.406Z,1.63
2022-12-29T17:40:50.733Z,2.08
2022-12-29T17:43:20.123Z,1.40
2022-12-29T17:45:56.355Z,1.40
2022-12-29T17:48:24.382Z,1.98
2022-12-29T17:50:54.088Z,1.80
2022-12-29T17:53:27.894Z,1.30
2022-12-29T17:55:56.529Z,1.70
2022-12-29T17:58:29.236Z,2.47
2022-12-29T18:00:59.631Z,2.38
2022-12-29T18:03:34.479Z,1.65
2022-12-29T18:08:38.526Z,1.80
2022-12-29T18:11:26.673Z,1.25
2022-12-29T18:13:55.628Z,2.10
2022-12-29T18:16:23.908Z,1.85
2022-12-29T18:18:51.726Z,1.80
2022-12-29T18:21:21.953Z,1.90
2022-12-29T18:23:50.574Z,2.10
2022-12-29T18:26:28.901Z,2.40
2022-12-29T18:28:58.273Z,1.98
2022-12-29T18:31:27.526Z,2.20
2022-12-29T18:33:57.719Z,2.00
2022-12-29T18:36:26.126Z,1.38
2022-12-29T18:38:57.927Z,2.17
2022-12-29T18:41:30.146Z,1.88
2022-12-29T18:43:59.665Z,1.63
2022-12-29T18:46:37.507Z,2.40
2022-12-29T18:49:05.406Z,1.63
2022-12-29T18:51:33.197Z,2.00
2022-12-29T18:54:02.967Z,1.63
2022-12-29T18:56:30.938Z,2.03
2022-12-29T18:58:59.199Z,2.15
2022-12-29T19:01:28.531Z,1.60
2022-12-29T19:03:56.829Z,1.40
2022-12-29T19:06:24.781Z,2.03
2022-12-29T19:08:52.833Z,1.80
2022-12-29T19:11:20.771Z,1.90
2022-12-29T19:13:48.666Z,2.17
2022-12-29T19:16:21.307Z,1.60
2022-12-29T19:19:04.084Z,1.65
2022-12-29T19:21:36.504Z,1.83
2022-12-29T19:24:04.845Z,1.60
2022-12-29T19:26:36.379Z,2.20
2022-12-29T19:29:06.630Z,2.50
2022-12-29T19:31:34.935Z,1.25
2022-12-29T19:34:03.511Z,1.90
2022-12-29T19:36:31.931Z,1.58
2022-12-29T19:39:01.022Z,1.58
2022-12-29T19:41:29.057Z,1.95
2022-12-29T19:43:57.327Z,1.98
2022-12-29T19:46:25.745Z,2.38
2022-12-29T19:48:58.762Z,3.13
2022-12-29T19:51:28.885Z,3.38
2022-12-29T19:53:58.625Z,2.75
2022-12-29T19:56:27.954Z,2.75
2022-12-29T19:58:58.773Z,2.42
2022-12-29T20:01:27.352Z,2.47
2022-12-29T20:03:55.599Z,1.75
2022-12-29T20:06:23.619Z,2.58
2022-12-29T20:08:51.701Z,2.53
2022-12-29T20:11:20.405Z,1.70
2022-12-29T20:13:48.717Z,1.92
2022-12-29T20:16:20.640Z,2.03
2022-12-29T20:18:49.419Z,2.78
2022-12-29T20:21:20.428Z,2.70
2022-12-29T20:23:49.570Z,3.05
2022-12-29T20:26:25.448Z,2.65
2022-12-29T20:28:54.111Z,2.38
2022-12-29T20:31:27.389Z,2.67
2022-12-29T20:33:57.097Z,2.17
2022-12-29T20:36:31.615Z,2.13
2022-12-29T20:39:01.345Z,2.78
2022-12-29T20:41:31.291Z,2.28
2022-12-29T20:43:59.700Z,1.92
2022-12-29T20:46:35.200Z,1.42
2022-12-29T20:49:07.973Z,2.53
2022-12-29T20:52:04.462Z,2.35
2022-12-29T20:54:24.751Z,2.65
2022-12-29T20:56:53.954Z,3.63
2022-12-29T20:59:27.709Z,2.80
2022-12-29T21:01:57.361Z,2.65
2022-12-29T21:04:25.946Z,2.15
2022-12-29T21:06:54.202Z,1.98
2022-12-29T21:09:22.867Z,2.13
2022-12-29T21:11:50.888Z,3.05
2022-12-29T21:14:18.814Z,3.05
2022-12-29T21:16:50.492Z,2.47
2022-12-29T21:19:20.721Z,2.22
2022-12-29T21:21:48.681Z,6.50
2022-12-29T21:24:16.657Z,5.47
2022-12-29T21:26:44.892Z,1.70
2022-12-29T21:29:12.708Z,3.00
2022-12-29T21:31:40.804Z,2.70
2022-12-29T21:34:09.239Z,2.67
2022-12-29T21:36:37.141Z,2.80
2022-12-29T21:39:05.402Z,2.40
2022-12-29T21:41:33.663Z,2.33
2022-12-29T21:44:21.142Z,2.65
2022-12-29T21:46:49.082Z,2.80
2022-12-29T21:49:17.316Z,2.05
2022-12-29T21:51:51.391Z,2.67
2022-12-29T21:54:46.118Z,3.63
2022-12-29T21:57:37.003Z,2.92
2022-12-29T22:00:28.770Z,2.67
2022-12-29T22:03:22.512Z,1.85
2022-12-29T22:06:11.011Z,3.25
2022-12-29T22:08:58.668Z,3.08
2022-12-29T22:11:46.369Z,3.00
2022-12-29T22:14:14.236Z,2.40
2022-12-29T22:16:42.256Z,2.50
2022-12-29T22:19:10.995Z,2.35
2022-12-29T22:21:38.875Z,2.42
2022-12-29T22:24:08.399Z,2.47
2022-12-29T22:26:36.295Z,2.85
2022-12-29T22:29:05.054Z,2.60
2022-12-29T22:31:33.837Z,2.78
2022-12-29T22:34:03.695Z,2.53
2022-12-29T22:36:32.315Z,2.58
2022-12-29T22:39:00.587Z,2.20
2022-12-29T22:41:28.449Z,2.38
2022-12-29T22:43:56.289Z,2.35
2022-12-29T22:46:24.269Z,2.85
2022-12-29T22:48:52.392Z,2.03
2022-12-29T22:51:20.300Z,2.58
2022-12-29T22:53:51.775Z,2.90
2022-12-29T22:56:20.030Z,2.70
2022-12-29T22:58:48.651Z,2.10
2022-12-29T23:01:19.144Z,2.03
2022-12-29T23:03:47.267Z,2.83
2022-12-29T23:06:17.139Z,2.72
2022-12-29T23:08:45.113Z,2.05
2022-12-29T23:11:13.705Z,2.50
2022-12-29T23:13:44.410Z,3.33
2022-12-29T23:16:13.512Z,2.78
2022-12-29T23:18:42.097Z,1.98
2022-12-29T23:21:10.793Z,2.35
2022-12-29T23:23:53.984Z,2.65
2022-12-29T23:26:28.761Z,2.25
2022-12-29T23:29:00.114Z,2.30
2022-12-29T23:31:29.252Z,2.25
2022-12-29T23:33:57.907Z,2.13
2022-12-29T23:36:26.366Z,2.17
2022-12-29T23:38:54.694Z,3.03
2022-12-29T23:41:22.692Z,1.77
2022-12-29T23:43:50.910Z,2.92
2022-12-29T23:46:22.382Z,2.70
2022-12-29T23:48:50.718Z,1.55
2022-12-29T23:51:19.207Z,2.67
2022-12-29T23:53:47.268Z,2.30
2022-12-29T23:56:18.426Z,2.63
2022-12-29T23:58:46.718Z,2.00
